sensor_id;sensor_type;location;lat;lon;timestamp;P1;durP1;ratioP1;P2;durP2;ratioP2
68379;SDS011;57711;53.196;19.638;2023-02-28T00:01:08;142.30;;;61.00;;
68379;SDS011;57711;53.196;19.638;2023-02-28T00:03:35;114.10;;;49.80;;
68379;SDS011;57711;53.196;19.638;2023-02-28T00:06:03;131.00;;;50.60;;
68379;SDS011;57711;53.196;19.638;2023-02-28T00:08:31;136.40;;;52.90;;
68379;SDS011;57711;53.196;19.638;2023-02-28T00:11:07;152.00;;;58.80;;
68379;SDS011;57711;53.196;19.638;2023-02-28T00:13:36;184.60;;;64.00;;
68379;SDS011;57711;53.196;19.638;2023-02-28T00:16:07;149.30;;;59.70;;
68379;SDS011;57711;53.196;19.638;2023-02-28T00:18:36;252.20;;;84.50;;
68379;SDS011;57711;53.196;19.638;2023-02-28T00:21:04;297.20;;;97.20;;
68379;SDS011;57711;53.196;19.638;2023-02-28T00:23:31;302.00;;;93.30;;
68379;SDS011;57711;53.196;19.638;2023-02-28T00:25:59;184.60;;;61.70;;
68379;SDS011;57711;53.196;19.638;2023-02-28T00:28:26;158.20;;;56.00;;
68379;SDS011;57711;53.196;19.638;2023-02-28T00:30:53;127.60;;;51.40;;
68379;SDS011;57711;53.196;19.638;2023-02-28T00:33:21;94.30;;;42.70;;
68379;SDS011;57711;53.196;19.638;2023-02-28T00:35:48;80.50;;;35.50;;
68379;SDS011;57711;53.196;19.638;2023-02-28T00:38:15;83.70;;;34.30;;
68379;SDS011;57711;53.196;19.638;2023-02-28T00:40:43;68.60;;;30.30;;
68379;SDS011;57711;53.196;19.638;2023-02-28T00:43:10;70.80;;;30.80;;
68379;SDS011;57711;53.196;19.638;2023-02-28T00:45:37;63.10;;;29.00;;
68379;SDS011;57711;53.196;19.638;2023-02-28T00:48:04;65.40;;;29.50;;
68379;SDS011;57711;53.196;19.638;2023-02-28T00:50:32;79.70;;;33.40;;
68379;SDS011;57711;53.196;19.638;2023-02-28T00:53:00;81.20;;;33.60;;
68379;SDS011;57711;53.196;19.638;2023-02-28T00:55:27;76.10;;;33.10;;
68379;SDS011;57711;53.196;19.638;2023-02-28T00:57:54;64.00;;;31.20;;
68379;SDS011;57711;53.196;19.638;2023-02-28T01:00:21;64.50;;;27.70;;
68379;SDS011;57711;53.196;19.638;2023-02-28T01:02:49;47.60;;;25.60;;
68379;SDS011;57711;53.196;19.638;2023-02-28T01:05:16;69.20;;;28.30;;
68379;SDS011;57711;53.196;19.638;2023-02-28T01:07:44;54.70;;;25.10;;
68379;SDS011;57711;53.196;19.638;2023-02-28T01:10:11;42.20;;;19.70;;
68379;SDS011;57711;53.196;19.638;2023-02-28T01:12:38;38.20;;;17.80;;
68379;SDS011;57711;53.196;19.638;2023-02-28T01:15:09;34.90;;;17.00;;
68379;SDS011;57711;53.196;19.638;2023-02-28T01:17:37;32.20;;;16.30;;
68379;SDS011;57711;53.196;19.638;2023-02-28T01:20:05;33.10;;;16.10;;
68379;SDS011;57711;53.196;19.638;2023-02-28T01:22:34;39.70;;;18.70;;
68379;SDS011;57711;53.196;19.638;2023-02-28T01:25:01;63.10;;;27.20;;
68379;SDS011;57711;53.196;19.638;2023-02-28T01:27:30;64.50;;;27.70;;
68379;SDS011;57711;53.196;19.638;2023-02-28T01:29:58;73.40;;;28.70;;
68379;SDS011;57711;53.196;19.638;2023-02-28T01:32:25;80.70;;;34.80;;
68379;SDS011;57711;53.196;19.638;2023-02-28T01:34:52;103.40;;;42.00;;
68379;SDS011;57711;53.196;19.638;2023-02-28T01:37:22;115.90;;;44.20;;
68379;SDS011;57711;53.196;19.638;2023-02-28T01:39:49;104.90;;;42.00;;
68379;SDS011;57711;53.196;19.638;2023-02-28T01:42:19;91.00;;;36.50;;
68379;SDS011;57711;53.196;19.638;2023-02-28T01:47:24;96.70;;;35.40;;
68379;SDS011;57711;53.196;19.638;2023-02-28T01:49:56;126.90;;;49.00;;
68379;SDS011;57711;53.196;19.638;2023-02-28T01:52:24;296.60;;;67.20;;
68379;SDS011;57711;53.196;19.638;2023-02-28T01:54:54;180.00;;;49.40;;
68379;SDS011;57711;53.196;19.638;2023-02-28T01:57:24;100.10;;;33.50;;
68379;SDS011;57711;53.196;19.638;2023-02-28T02:00:00;79.60;;;29.00;;
68379;SDS011;57711;53.196;19.638;2023-02-28T02:02:38;90.40;;;31.40;;
68379;SDS011;57711;53.196;19.638;2023-02-28T02:05:10;122.00;;;39.70;;
68379;SDS011;57711;53.196;19.638;2023-02-28T02:07:41;155.20;;;48.20;;
68379;SDS011;57711;53.196;19.638;2023-02-28T02:18:40;218.30;;;63.80;;
68379;SDS011;57711;53.196;19.638;2023-02-28T02:21:16;358.40;;;93.10;;
68379;SDS011;57711;53.196;19.638;2023-02-28T02:24:05;528.80;;;149.50;;
68379;SDS011;57711;53.196;19.638;2023-02-28T02:37:55;124.70;;;43.20;;
68379;SDS011;57711;53.196;19.638;2023-02-28T02:40:38;83.20;;;31.50;;
68379;SDS011;57711;53.196;19.638;2023-02-28T02:43:13;77.30;;;34.10;;
68379;SDS011;57711;53.196;19.638;2023-02-28T02:45:49;81.10;;;33.40;;
68379;SDS011;57711;53.196;19.638;2023-02-28T02:48:21;71.60;;;33.10;;
68379;SDS011;57711;53.196;19.638;2023-02-28T02:50:57;73.90;;;30.70;;
68379;SDS011;57711;53.196;19.638;2023-02-28T02:53:30;64.80;;;28.70;;
68379;SDS011;57711;53.196;19.638;2023-02-28T02:56:02;57.60;;;27.10;;
68379;SDS011;57711;53.196;19.638;2023-02-28T02:58:33;54.20;;;25.90;;
68379;SDS011;57711;53.196;19.638;2023-02-28T03:01:12;51.70;;;25.10;;
68379;SDS011;57711;53.196;19.638;2023-02-28T03:03:45;52.20;;;25.30;;
68379;SDS011;57711;53.196;19.638;2023-02-28T03:06:13;52.30;;;26.20;;
68379;SDS011;57711;53.196;19.638;2023-02-28T03:08:41;47.90;;;24.40;;
68379;SDS011;57711;53.196;19.638;2023-02-28T03:11:12;52.70;;;26.00;;
68379;SDS011;57711;53.196;19.638;2023-02-28T03:13:54;61.10;;;26.90;;
68379;SDS011;57711;53.196;19.638;2023-02-28T03:16:40;72.70;;;32.30;;
68379;SDS011;57711;53.196;19.638;2023-02-28T03:27:29;74.80;;;31.80;;
68379;SDS011;57711;53.196;19.638;2023-02-28T03:32:56;70.90;;;30.30;;
68379;SDS011;57711;53.196;19.638;2023-02-28T03:35:30;67.20;;;28.70;;
68379;SDS011;57711;53.196;19.638;2023-02-28T03:38:03;54.50;;;25.50;;
68379;SDS011;57711;53.196;19.638;2023-02-28T03:40:35;55.90;;;24.80;;
68379;SDS011;57711;53.196;19.638;2023-02-28T03:43:08;53.70;;;24.30;;
68379;SDS011;57711;53.196;19.638;2023-02-28T03:45:39;57.10;;;24.20;;
68379;SDS011;57711;53.196;19.638;2023-02-28T03:48:13;50.00;;;20.80;;
68379;SDS011;57711;53.196;19.638;2023-02-28T03:50:47;47.10;;;20.60;;
68379;SDS011;57711;53.196;19.638;2023-02-28T03:53:28;43.10;;;20.70;;
68379;SDS011;57711;53.196;19.638;2023-02-28T03:55:57;37.20;;;18.10;;
68379;SDS011;57711;53.196;19.638;2023-02-28T03:58:35;39.70;;;19.40;;
68379;SDS011;57711;53.196;19.638;2023-02-28T04:01:09;45.40;;;20.30;;
68379;SDS011;57711;53.196;19.638;2023-02-28T04:03:46;45.40;;;20.10;;
68379;SDS011;57711;53.196;19.638;2023-02-28T04:06:15;45.20;;;19.90;;
68379;SDS011;57711;53.196;19.638;2023-02-28T04:08:45;39.60;;;19.70;;
68379;SDS011;57711;53.196;19.638;2023-02-28T04:13:40;48.80;;;21.00;;
68379;SDS011;57711;53.196;19.638;2023-02-28T04:16:07;49.30;;;21.70;;
68379;SDS011;57711;53.196;19.638;2023-02-28T04:18:50;65.00;;;28.20;;
68379;SDS011;57711;53.196;19.638;2023-02-28T04:21:17;62.40;;;29.00;;
68379;SDS011;57711;53.196;19.638;2023-02-28T04:23:47;67.40;;;28.80;;
68379;SDS011;57711;53.196;19.638;2023-02-28T04:26:14;78.50;;;30.50;;
68379;SDS011;57711;53.196;19.638;2023-02-28T04:28:41;66.20;;;29.70;;
68379;SDS011;57711;53.196;19.638;2023-02-28T04:31:08;69.90;;;31.50;;
68379;SDS011;57711;53.196;19.638;2023-02-28T04:33:36;77.10;;;33.10;;
68379;SDS011;57711;53.196;19.638;2023-02-28T04:36:04;92.60;;;37.40;;
68379;SDS011;57711;53.196;19.638;2023-02-28T04:38:35;83.80;;;35.50;;
68379;SDS011;57711;53.196;19.638;2023-02-28T04:41:04;80.10;;;35.00;;
68379;SDS011;57711;53.196;19.638;2023-02-28T04:43:32;90.60;;;37.90;;
68379;SDS011;57711;53.196;19.638;2023-02-28T04:46:00;89.20;;;40.00;;
68379;SDS011;57711;53.196;19.638;2023-02-28T04:48:30;103.10;;;44.20;;
68379;SDS011;57711;53.196;19.638;2023-02-28T04:51:00;99.20;;;45.60;;
68379;SDS011;57711;53.196;19.638;2023-02-28T04:53:28;124.30;;;47.30;;
68379;SDS011;57711;53.196;19.638;2023-02-28T04:55:56;100.50;;;46.30;;
68379;SDS011;57711;53.196;19.638;2023-02-28T04:58:24;104.20;;;46.00;;
68379;SDS011;57711;53.196;19.638;2023-02-28T05:00:52;99.10;;;43.20;;
68379;SDS011;57711;53.196;19.638;2023-02-28T05:03:20;81.50;;;34.30;;
68379;SDS011;57711;53.196;19.638;2023-02-28T05:05:48;64.70;;;30.00;;
68379;SDS011;57711;53.196;19.638;2023-02-28T05:08:16;57.00;;;25.80;;
68379;SDS011;57711;53.196;19.638;2023-02-28T05:10:43;54.60;;;23.60;;
68379;SDS011;57711;53.196;19.638;2023-02-28T05:13:13;53.60;;;23.70;;
68379;SDS011;57711;53.196;19.638;2023-02-28T05:15:40;57.50;;;23.60;;
68379;SDS011;57711;53.196;19.638;2023-02-28T05:18:08;54.60;;;23.90;;
68379;SDS011;57711;53.196;19.638;2023-02-28T05:20:35;64.30;;;25.30;;
68379;SDS011;57711;53.196;19.638;2023-02-28T05:23:04;77.40;;;33.10;;
68379;SDS011;57711;53.196;19.638;2023-02-28T05:25:31;152.20;;;58.10;;
68379;SDS011;57711;53.196;19.638;2023-02-28T05:27:58;189.90;;;65.70;;
68379;SDS011;57711;53.196;19.638;2023-02-28T05:30:25;243.30;;;85.00;;
68379;SDS011;57711;53.196;19.638;2023-02-28T05:32:53;133.90;;;52.20;;
68379;SDS011;57711;53.196;19.638;2023-02-28T05:35:20;124.50;;;48.00;;
68379;SDS011;57711;53.196;19.638;2023-02-28T05:37:47;87.60;;;39.70;;
68379;SDS011;57711;53.196;19.638;2023-02-28T05:40:14;77.40;;;34.80;;
68379;SDS011;57711;53.196;19.638;2023-02-28T05:42:42;58.50;;;28.40;;
68379;SDS011;57711;53.196;19.638;2023-02-28T05:45:09;66.00;;;28.10;;
68379;SDS011;57711;53.196;19.638;2023-02-28T05:47:37;60.50;;;29.80;;
68379;SDS011;57711;53.196;19.638;2023-02-28T05:50:04;64.60;;;32.60;;
68379;SDS011;57711;53.196;19.638;2023-02-28T05:52:32;80.20;;;37.70;;
68379;SDS011;57711;53.196;19.638;2023-02-28T05:54:59;76.40;;;35.90;;
68379;SDS011;57711;53.196;19.638;2023-02-28T05:57:26;92.10;;;42.60;;
68379;SDS011;57711;53.196;19.638;2023-02-28T05:59:53;90.30;;;42.50;;
68379;SDS011;57711;53.196;19.638;2023-02-28T06:02:20;102.20;;;45.60;;
68379;SDS011;57711;53.196;19.638;2023-02-28T06:04:48;105.30;;;48.10;;
68379;SDS011;57711;53.196;19.638;2023-02-28T06:07:15;273.70;;;98.20;;
68379;SDS011;57711;53.196;19.638;2023-02-28T06:09:44;246.00;;;95.60;;
68379;SDS011;57711;53.196;19.638;2023-02-28T06:12:11;220.00;;;92.20;;
68379;SDS011;57711;53.196;19.638;2023-02-28T06:14:38;190.10;;;85.60;;
68379;SDS011;57711;53.196;19.638;2023-02-28T06:17:05;179.20;;;80.90;;
68379;SDS011;57711;53.196;19.638;2023-02-28T06:19:32;176.20;;;79.80;;
68379;SDS011;57711;53.196;19.638;2023-02-28T06:22:00;396.20;;;191.00;;
68379;SDS011;57711;53.196;19.638;2023-02-28T06:24:27;249.00;;;112.60;;
68379;SDS011;57711;53.196;19.638;2023-02-28T06:26:54;239.40;;;98.60;;
68379;SDS011;57711;53.196;19.638;2023-02-28T06:29:22;196.10;;;89.40;;
68379;SDS011;57711;53.196;19.638;2023-02-28T06:31:49;599.60;;;264.50;;
68379;SDS011;57711;53.196;19.638;2023-02-28T06:34:16;430.00;;;174.50;;
68379;SDS011;57711;53.196;19.638;2023-02-28T06:36:44;373.00;;;149.10;;
68379;SDS011;57711;53.196;19.638;2023-02-28T06:39:11;323.40;;;136.40;;
68379;SDS011;57711;53.196;19.638;2023-02-28T06:41:38;286.40;;;130.20;;
68379;SDS011;57711;53.196;19.638;2023-02-28T06:44:21;282.60;;;133.00;;
68379;SDS011;57711;53.196;19.638;2023-02-28T06:46:49;273.20;;;134.50;;
68379;SDS011;57711;53.196;19.638;2023-02-28T06:49:17;258.10;;;129.40;;
68379;SDS011;57711;53.196;19.638;2023-02-28T06:51:44;295.10;;;128.50;;
68379;SDS011;57711;53.196;19.638;2023-02-28T06:54:12;307.10;;;140.00;;
68379;SDS011;57711;53.196;19.638;2023-02-28T06:56:39;309.40;;;140.60;;
68379;SDS011;57711;53.196;19.638;2023-02-28T06:59:06;318.70;;;148.90;;
68379;SDS011;57711;53.196;19.638;2023-02-28T07:01:34;223.50;;;111.40;;
68379;SDS011;57711;53.196;19.638;2023-02-28T07:04:01;185.40;;;88.30;;
68379;SDS011;57711;53.196;19.638;2023-02-28T07:06:28;177.90;;;82.40;;
68379;SDS011;57711;53.196;19.638;2023-02-28T07:08:55;165.50;;;76.10;;
68379;SDS011;57711;53.196;19.638;2023-02-28T07:11:23;377.30;;;144.30;;
68379;SDS011;57711;53.196;19.638;2023-02-28T07:13:55;423.60;;;186.00;;
68379;SDS011;57711;53.196;19.638;2023-02-28T07:16:23;415.80;;;172.70;;
68379;SDS011;57711;53.196;19.638;2023-02-28T07:18:52;384.30;;;142.80;;
68379;SDS011;57711;53.196;19.638;2023-02-28T07:21:20;355.30;;;133.50;;
68379;SDS011;57711;53.196;19.638;2023-02-28T07:23:47;257.50;;;100.50;;
68379;SDS011;57711;53.196;19.638;2023-02-28T07:26:16;350.50;;;139.70;;
68379;SDS011;57711;53.196;19.638;2023-02-28T07:28:44;372.70;;;144.40;;
68379;SDS011;57711;53.196;19.638;2023-02-28T07:31:13;329.50;;;118.90;;
68379;SDS011;57711;53.196;19.638;2023-02-28T07:33:41;310.90;;;99.40;;
68379;SDS011;57711;53.196;19.638;2023-02-28T07:36:10;235.20;;;83.00;;
68379;SDS011;57711;53.196;19.638;2023-02-28T07:38:42;130.30;;;55.00;;
68379;SDS011;57711;53.196;19.638;2023-02-28T07:41:14;105.10;;;44.20;;
68379;SDS011;57711;53.196;19.638;2023-02-28T07:43:46;134.10;;;51.70;;
68379;SDS011;57711;53.196;19.638;2023-02-28T07:46:14;155.20;;;52.10;;
68379;SDS011;57711;53.196;19.638;2023-02-28T07:48:42;103.60;;;40.30;;
68379;SDS011;57711;53.196;19.638;2023-02-28T07:51:11;150.70;;;44.90;;
68379;SDS011;57711;53.196;19.638;2023-02-28T07:53:38;165.50;;;51.60;;
68379;SDS011;57711;53.196;19.638;2023-02-28T07:56:06;267.30;;;94.30;;
68379;SDS011;57711;53.196;19.638;2023-02-28T07:58:33;323.20;;;116.60;;
68379;SDS011;57711;53.196;19.638;2023-02-28T08:01:07;273.40;;;105.40;;
68379;SDS011;57711;53.196;19.638;2023-02-28T08:03:35;120.80;;;43.50;;
68379;SDS011;57711;53.196;19.638;2023-02-28T08:06:04;166.60;;;61.40;;
68379;SDS011;57711;53.196;19.638;2023-02-28T08:08:32;209.40;;;75.90;;
68379;SDS011;57711;53.196;19.638;2023-02-28T08:11:00;221.10;;;79.00;;
68379;SDS011;57711;53.196;19.638;2023-02-28T08:13:29;201.70;;;76.10;;
68379;SDS011;57711;53.196;19.638;2023-02-28T08:15:57;139.60;;;45.80;;
68379;SDS011;57711;53.196;19.638;2023-02-28T08:18:24;80.00;;;33.30;;
68379;SDS011;57711;53.196;19.638;2023-02-28T08:20:51;87.60;;;35.00;;
68379;SDS011;57711;53.196;19.638;2023-02-28T08:23:18;44.30;;;21.50;;
68379;SDS011;57711;53.196;19.638;2023-02-28T08:25:52;64.30;;;23.50;;
68379;SDS011;57711;53.196;19.638;2023-02-28T08:28:21;41.60;;;19.40;;
68379;SDS011;57711;53.196;19.638;2023-02-28T08:30:51;36.50;;;19.10;;
68379;SDS011;57711;53.196;19.638;2023-02-28T08:33:18;35.60;;;17.40;;
68379;SDS011;57711;53.196;19.638;2023-02-28T08:35:45;25.80;;;12.70;;
68379;SDS011;57711;53.196;19.638;2023-02-28T08:38:13;29.10;;;12.00;;
68379;SDS011;57711;53.196;19.638;2023-02-28T08:40:40;151.00;;;56.70;;
68379;SDS011;57711;53.196;19.638;2023-02-28T08:43:07;60.00;;;29.20;;
68379;SDS011;57711;53.196;19.638;2023-02-28T08:45:34;65.70;;;31.30;;
68379;SDS011;57711;53.196;19.638;2023-02-28T08:48:01;108.20;;;43.90;;
68379;SDS011;57711;53.196;19.638;2023-02-28T08:50:28;50.20;;;19.60;;
68379;SDS011;57711;53.196;19.638;2023-02-28T08:52:55;59.40;;;25.00;;
68379;SDS011;57711;53.196;19.638;2023-02-28T08:55:23;69.10;;;28.30;;
68379;SDS011;57711;53.196;19.638;2023-02-28T08:57:50;33.30;;;15.30;;
68379;SDS011;57711;53.196;19.638;2023-02-28T09:00:17;33.50;;;16.90;;
68379;SDS011;57711;53.196;19.638;2023-02-28T09:02:45;35.70;;;18.20;;
68379;SDS011;57711;53.196;19.638;2023-02-28T09:05:12;33.20;;;17.10;;
68379;SDS011;57711;53.196;19.638;2023-02-28T09:07:39;40.90;;;18.10;;
68379;SDS011;57711;53.196;19.638;2023-02-28T09:10:07;37.90;;;20.90;;
68379;SDS011;57711;53.196;19.638;2023-02-28T09:12:34;21.10;;;8.40;;
68379;SDS011;57711;53.196;19.638;2023-02-28T09:15:02;18.10;;;9.10;;
68379;SDS011;57711;53.196;19.638;2023-02-28T09:17:30;37.00;;;16.60;;
68379;SDS011;57711;53.196;19.638;2023-02-28T09:19:57;18.70;;;9.90;;
68379;SDS011;57711;53.196;19.638;2023-02-28T09:22:25;23.10;;;10.30;;
68379;SDS011;57711;53.196;19.638;2023-02-28T09:24:52;20.90;;;9.70;;
68379;SDS011;57711;53.196;19.638;2023-02-28T09:27:19;40.60;;;18.10;;
68379;SDS011;57711;53.196;19.638;2023-02-28T09:29:46;31.30;;;15.60;;
68379;SDS011;57711;53.196;19.638;2023-02-28T09:32:13;36.50;;;18.10;;
68379;SDS011;57711;53.196;19.638;2023-02-28T09:34:40;34.10;;;12.30;;
68379;SDS011;57711;53.196;19.638;2023-02-28T09:37:08;16.40;;;8.70;;
68379;SDS011;57711;53.196;19.638;2023-02-28T09:39:35;19.80;;;9.80;;
68379;SDS011;57711;53.196;19.638;2023-02-28T09:42:02;18.90;;;10.10;;
68379;SDS011;57711;53.196;19.638;2023-02-28T09:44:36;23.30;;;10.60;;
68379;SDS011;57711;53.196;19.638;2023-02-28T09:49:42;17.00;;;7.90;;
68379;SDS011;57711;53.196;19.638;2023-02-28T09:52:14;16.10;;;7.90;;
68379;SDS011;57711;53.196;19.638;2023-02-28T09:54:46;20.30;;;9.10;;
68379;SDS011;57711;53.196;19.638;2023-02-28T10:00:13;17.30;;;7.10;;
68379;SDS011;57711;53.196;19.638;2023-02-28T10:05:32;12.40;;;6.60;;
68379;SDS011;57711;53.196;19.638;2023-02-28T10:08:08;13.20;;;6.60;;
68379;SDS011;57711;53.196;19.638;2023-02-28T10:15:54;11.40;;;4.80;;
68379;SDS011;57711;53.196;19.638;2023-02-28T10:18:26;11.70;;;5.30;;
68379;SDS011;57711;53.196;19.638;2023-02-28T10:20:57;12.30;;;4.10;;
68379;SDS011;57711;53.196;19.638;2023-02-28T10:23:34;11.70;;;5.10;;
68379;SDS011;57711;53.196;19.638;2023-02-28T10:26:08;10.20;;;4.70;;
68379;SDS011;57711;53.196;19.638;2023-02-28T10:28:39;13.30;;;5.70;;
68379;SDS011;57711;53.196;19.638;2023-02-28T10:31:08;13.20;;;5.10;;
68379;SDS011;57711;53.196;19.638;2023-02-28T10:33:43;8.70;;;4.70;;
68379;SDS011;57711;53.196;19.638;2023-02-28T10:36:15;16.40;;;7.00;;
68379;SDS011;57711;53.196;19.638;2023-02-28T10:38:46;24.90;;;8.30;;
68379;SDS011;57711;53.196;19.638;2023-02-28T10:41:15;82.10;;;23.30;;
68379;SDS011;57711;53.196;19.638;2023-02-28T10:44:12;14.70;;;6.10;;
68379;SDS011;57711;53.196;19.638;2023-02-28T10:46:44;16.70;;;6.90;;
68379;SDS011;57711;53.196;19.638;2023-02-28T10:49:13;43.90;;;14.70;;
68379;SDS011;57711;53.196;19.638;2023-02-28T10:51:43;14.00;;;6.40;;
68379;SDS011;57711;53.196;19.638;2023-02-28T10:54:15;10.20;;;4.90;;
68379;SDS011;57711;53.196;19.638;2023-02-28T10:56:49;15.70;;;5.40;;
68379;SDS011;57711;53.196;19.638;2023-02-28T10:59:33;9.80;;;4.80;;
68379;SDS011;57711;53.196;19.638;2023-02-28T11:02:00;15.50;;;6.70;;
68379;SDS011;57711;53.196;19.638;2023-02-28T11:07:17;22.40;;;7.70;;
68379;SDS011;57711;53.196;19.638;2023-02-28T11:09:52;15.20;;;6.60;;
68379;SDS011;57711;53.196;19.638;2023-02-28T11:15:00;20.40;;;9.10;;
68379;SDS011;57711;53.196;19.638;2023-02-28T11:17:31;17.50;;;8.40;;
68379;SDS011;57711;53.196;19.638;2023-02-28T11:20:01;16.00;;;7.80;;
68379;SDS011;57711;53.196;19.638;2023-02-28T11:22:35;13.40;;;7.80;;
68379;SDS011;57711;53.196;19.638;2023-02-28T11:25:12;16.40;;;7.80;;
68379;SDS011;57711;53.196;19.638;2023-02-28T11:27:52;15.30;;;8.20;;
68379;SDS011;57711;53.196;19.638;2023-02-28T11:30:24;20.70;;;7.80;;
68379;SDS011;57711;53.196;19.638;2023-02-28T11:35:53;25.70;;;13.10;;
68379;SDS011;57711;53.196;19.638;2023-02-28T11:38:28;13.90;;;7.00;;
68379;SDS011;57711;53.196;19.638;2023-02-28T11:46:52;22.70;;;9.50;;
68379;SDS011;57711;53.196;19.638;2023-02-28T11:49:32;34.00;;;11.80;;
68379;SDS011;57711;53.196;19.638;2023-02-28T12:10:44;11.60;;;5.40;;
68379;SDS011;57711;53.196;19.638;2023-02-28T12:16:17;13.50;;;6.40;;
68379;SDS011;57711;53.196;19.638;2023-02-28T12:28:03;18.10;;;6.30;;
68379;SDS011;57711;53.196;19.638;2023-02-28T12:30:32;10.00;;;6.00;;
68379;SDS011;57711;53.196;19.638;2023-02-28T12:33:09;12.50;;;6.00;;
68379;SDS011;57711;53.196;19.638;2023-02-28T12:36:15;11.90;;;5.60;;
68379;SDS011;57711;53.196;19.638;2023-02-28T12:38:43;11.90;;;5.20;;
68379;SDS011;57711;53.196;19.638;2023-02-28T12:41:16;23.00;;;6.80;;
68379;SDS011;57711;53.196;19.638;2023-02-28T12:43:55;9.90;;;5.40;;
68379;SDS011;57711;53.196;19.638;2023-02-28T12:46:29;11.00;;;5.10;;
68379;SDS011;57711;53.196;19.638;2023-02-28T12:49:10;9.70;;;4.60;;
68379;SDS011;57711;53.196;19.638;2023-02-28T12:51:43;15.10;;;4.90;;
68379;SDS011;57711;53.196;19.638;2023-02-28T12:54:16;8.60;;;4.20;;
68379;SDS011;57711;53.196;19.638;2023-02-28T13:02:09;10.20;;;4.50;;
68379;SDS011;57711;53.196;19.638;2023-02-28T13:10:49;32.50;;;14.40;;
68379;SDS011;57711;53.196;19.638;2023-02-28T13:13:22;24.60;;;9.90;;
68379;SDS011;57711;53.196;19.638;2023-02-28T13:16:10;30.80;;;12.60;;
68379;SDS011;57711;53.196;19.638;2023-02-28T13:18:44;38.90;;;11.40;;
68379;SDS011;57711;53.196;19.638;2023-02-28T13:26:22;18.30;;;7.20;;
68379;SDS011;57711;53.196;19.638;2023-02-28T13:32:18;8.80;;;4.70;;
68379;SDS011;57711;53.196;19.638;2023-02-28T13:40:06;11.80;;;5.90;;
68379;SDS011;57711;53.196;19.638;2023-02-28T13:42:46;12.80;;;5.30;;
68379;SDS011;57711;53.196;19.638;2023-02-28T13:45:20;14.60;;;6.10;;
68379;SDS011;57711;53.196;19.638;2023-02-28T13:47:58;10.90;;;5.20;;
68379;SDS011;57711;53.196;19.638;2023-02-28T13:50:29;14.10;;;5.20;;
68379;SDS011;57711;53.196;19.638;2023-02-28T13:58:26;10.70;;;5.10;;
68379;SDS011;57711;53.196;19.638;2023-02-28T14:06:46;13.40;;;5.50;;
68379;SDS011;57711;53.196;19.638;2023-02-28T14:15:26;16.60;;;7.50;;
68379;SDS011;57711;53.196;19.638;2023-02-28T14:17:55;10.60;;;5.30;;
68379;SDS011;57711;53.196;19.638;2023-02-28T14:20:26;12.20;;;5.70;;
68379;SDS011;57711;53.196;19.638;2023-02-28T14:23:03;17.00;;;6.00;;
68379;SDS011;57711;53.196;19.638;2023-02-28T14:25:47;15.80;;;5.90;;
68379;SDS011;57711;53.196;19.638;2023-02-28T14:31:44;13.30;;;5.60;;
68379;SDS011;57711;53.196;19.638;2023-02-28T14:34:37;16.60;;;5.90;;
68379;SDS011;57711;53.196;19.638;2023-02-28T14:37:16;17.60;;;6.60;;
68379;SDS011;57711;53.196;19.638;2023-02-28T14:39:50;10.20;;;5.50;;
68379;SDS011;57711;53.196;19.638;2023-02-28T14:42:26;10.60;;;5.40;;
68379;SDS011;57711;53.196;19.638;2023-02-28T14:45:04;15.90;;;6.10;;
68379;SDS011;57711;53.196;19.638;2023-02-28T14:47:33;11.70;;;5.70;;
68379;SDS011;57711;53.196;19.638;2023-02-28T14:50:02;12.00;;;4.80;;
68379;SDS011;57711;53.196;19.638;2023-02-28T14:52:32;22.70;;;10.00;;
68379;SDS011;57711;53.196;19.638;2023-02-28T14:57:31;66.70;;;30.80;;
68379;SDS011;57711;53.196;19.638;2023-02-28T15:02:40;20.20;;;7.70;;
68379;SDS011;57711;53.196;19.638;2023-02-28T15:07:47;17.60;;;8.50;;
68379;SDS011;57711;53.196;19.638;2023-02-28T15:12:53;46.90;;;19.20;;
68379;SDS011;57711;53.196;19.638;2023-02-28T15:15:39;36.30;;;15.70;;
68379;SDS011;57711;53.196;19.638;2023-02-28T15:23:49;142.80;;;64.50;;
68379;SDS011;57711;53.196;19.638;2023-02-28T15:26:38;110.10;;;46.00;;
68379;SDS011;57711;53.196;19.638;2023-02-28T15:29:11;204.90;;;93.90;;
68379;SDS011;57711;53.196;19.638;2023-02-28T15:31:43;82.10;;;41.80;;
68379;SDS011;57711;53.196;19.638;2023-02-28T15:34:33;301.20;;;152.00;;
68379;SDS011;57711;53.196;19.638;2023-02-28T15:40:15;44.90;;;21.60;;
68379;SDS011;57711;53.196;19.638;2023-02-28T15:43:06;62.70;;;15.70;;
68379;SDS011;57711;53.196;19.638;2023-02-28T15:45:45;53.50;;;13.90;;
68379;SDS011;57711;53.196;19.638;2023-02-28T15:50:48;40.80;;;16.30;;
68379;SDS011;57711;53.196;19.638;2023-02-28T15:53:24;32.30;;;13.00;;
68379;SDS011;57711;53.196;19.638;2023-02-28T15:55:57;24.40;;;11.50;;
68379;SDS011;57711;53.196;19.638;2023-02-28T15:58:27;27.30;;;11.90;;
68379;SDS011;57711;53.196;19.638;2023-02-28T16:01:16;81.70;;;47.00;;
68379;SDS011;57711;53.196;19.638;2023-02-28T16:03:48;58.50;;;28.30;;
68379;SDS011;57711;53.196;19.638;2023-02-28T16:08:49;764.00;;;325.10;;
68379;SDS011;57711;53.196;19.638;2023-02-28T16:11:18;931.50;;;454.60;;
68379;SDS011;57711;53.196;19.638;2023-02-28T16:13:47;300.50;;;129.30;;
68379;SDS011;57711;53.196;19.638;2023-02-28T16:16:20;159.90;;;59.80;;
68379;SDS011;57711;53.196;19.638;2023-02-28T16:18:49;43.30;;;22.90;;
68379;SDS011;57711;53.196;19.638;2023-02-28T16:21:16;68.70;;;28.10;;
68379;SDS011;57711;53.196;19.638;2023-02-28T16:23:44;53.10;;;25.10;;
68379;SDS011;57711;53.196;19.638;2023-02-28T16:26:18;47.90;;;22.40;;
68379;SDS011;57711;53.196;19.638;2023-02-28T16:28:50;37.40;;;15.80;;
68379;SDS011;57711;53.196;19.638;2023-02-28T16:31:18;38.40;;;15.30;;
68379;SDS011;57711;53.196;19.638;2023-02-28T16:33:46;37.10;;;17.80;;
68379;SDS011;57711;53.196;19.638;2023-02-28T16:36:17;46.10;;;26.20;;
68379;SDS011;57711;53.196;19.638;2023-02-28T16:38:46;45.90;;;25.40;;
68379;SDS011;57711;53.196;19.638;2023-02-28T16:41:17;44.80;;;19.50;;
68379;SDS011;57711;53.196;19.638;2023-02-28T16:43:48;40.50;;;17.10;;
68379;SDS011;57711;53.196;19.638;2023-02-28T16:46:18;50.10;;;17.00;;
68379;SDS011;57711;53.196;19.638;2023-02-28T16:48:46;50.50;;;18.40;;
68379;SDS011;57711;53.196;19.638;2023-02-28T16:51:18;215.70;;;68.40;;
68379;SDS011;57711;53.196;19.638;2023-02-28T16:53:45;306.40;;;106.70;;
68379;SDS011;57711;53.196;19.638;2023-02-28T16:56:14;170.60;;;63.50;;
68379;SDS011;57711;53.196;19.638;2023-02-28T16:58:44;137.60;;;49.60;;
68379;SDS011;57711;53.196;19.638;2023-02-28T17:01:12;91.10;;;35.40;;
68379;SDS011;57711;53.196;19.638;2023-02-28T17:03:40;74.30;;;30.20;;
68379;SDS011;57711;53.196;19.638;2023-02-28T17:06:21;124.80;;;50.20;;
68379;SDS011;57711;53.196;19.638;2023-02-28T17:08:50;124.70;;;52.40;;
68379;SDS011;57711;53.196;19.638;2023-02-28T17:11:18;156.40;;;60.90;;